Huvudsida
METAR-TAF:

METAR-TAF

Flygplatser :

Århus flygplats

Århus, Danmark

latitud: 56-18N, longitud: 010-37E, höjd: 23 m

Aktuellt väderrapport

Denna rapport gjordes för 29 minuter sedan, klockan 18:50 UTC
Vind 21 kt från väst/nordväst i byarna ända upp till 31 kt
Temperatur 10°C
Fuktighet 76%
Tryck 1003 hPa
Sikt 10 km eller mer

METAR: EKAH 231850Z AUTO 30021G31KT 9999NDV FEW024/// BKN210/// 10/06 Q1003

Tid: 21:19 (19:19 UTC)

Väderprognos

Denna rapport gjordes för 2 timmar och 17 minuter sedan, klockan 17:02 UTC
Prognos gäller från 23 kl. 18 UTC till 24 kl. 18 UTC
Vind 20 kt från väst/nordväst i byarna ända upp till 30 kt
Sikt 10 km eller mer
Spridda moln på en höjd av 1800 ft
Blir
från 23 kl. 22 UTC till 23 kl. 24 UTC
Vind 10 kt från nordväst

TAF: EKAH 231702Z 2318/2418 29020G30KT 9999 SCT018 BECMG 2322/2324 31010KT

Aktuella väderrapporter och prognoser från 4000 flygplatser (METAR- och TAF-rapporter).

De tillgängliga stationerna syns som gula och röda prickar på kartan.

För musen över prickarna för att se namnen på stationerna.

Klicka sedan för att få väderrapporter och prognoser.

För att ändra kartan: Klicka på de gröna knapparna med ett svart kors på för att zooma in; den gröna knappen med ett streck på för att zooma ut; eller på de gröna pilarna för angränsande kartor.


METAR-TAF: